Time;durP1;ratioP1;P1;durP2;ratioP2;P2;SDS_P1;SDS_P2;PMS_P1;PMS_P2;Temp;Humidity;BMP_temperature;BMP_pressure;BME280_temperature;BME280_humidity;BME280_pressure;Samples;Min_cycle;Max_cycle;Signal;HPM_P1;HPM_P2
2023/12/06 00:00:06;;;;;;;;;;;25.40;99.90;;;;;;4970915;28;19925;-71
2023/12/06 00:02:34;;;;;;;;;;;25.50;99.90;;;;;;4972565;28;20271;-72
2023/12/06 00:05:01;;;;;;;;;;;25.50;99.90;;;;;;4971389;28;19932;-72
2023/12/06 00:07:27;;;;;;;;;;;25.60;99.90;;;;;;4972661;28;20122;-72
2023/12/06 00:09:54;;;;;;;;;;;25.70;99.90;;;;;;4972349;28;20333;-73
2023/12/06 00:12:21;;;;;;;;;;;25.70;99.90;;;;;;4964911;28;19914;-72
2023/12/06 00:14:47;;;;;;;;;;;25.90;99.90;;;;;;4953276;28;19998;-73
2023/12/06 00:17:14;;;;;;;;;;;26.10;99.90;;;;;;4960309;28;19915;-71
2023/12/06 00:19:40;;;;;;;;;;;26.10;99.90;;;;;;4975286;28;20398;-74
2023/12/06 00:22:07;;;;;;;;;;;26.00;99.90;;;;;;4970021;28;20045;-72
2023/12/06 00:24:34;;;;;;;;;;;26.00;99.90;;;;;;4960130;28;19921;-73
2023/12/06 00:27:00;;;;;;;;;;;25.90;99.90;;;;;;4958849;28;19997;-71
2023/12/06 00:29:27;;;;;;;;;;;26.00;99.90;;;;;;4961756;28;19915;-70
2023/12/06 00:31:53;;;;;;;;;;;26.10;99.90;;;;;;4969984;28;19921;-70
2023/12/06 00:34:20;;;;;;;;;;;26.10;99.90;;;;;;4964176;28;19910;-71
2023/12/06 00:36:48;;;;;;;;;;;26.10;99.90;;;;;;4970841;28;20384;-72
2023/12/06 00:39:15;;;;;;;;;;;26.10;99.90;;;;;;4971206;28;19925;-70
2023/12/06 00:41:41;;;;;;;;;;;26.30;99.90;;;;;;4971454;28;19917;-71
2023/12/06 00:44:08;;;;;;;;;;;26.30;99.90;;;;;;4970616;28;20371;-70
2023/12/06 00:46:36;;;;;;;;;;;26.30;99.90;;;;;;4969597;28;19925;-70
2023/12/06 00:49:03;;;;;;;;;;;26.40;99.90;;;;;;4961221;28;20056;-72
2023/12/06 00:51:30;;;;;;;;;;;26.50;99.90;;;;;;4954285;28;19914;-70
2023/12/06 00:53:56;;;;;;;;;;;26.50;99.90;;;;;;4961117;28;19914;-71
2023/12/06 00:56:23;;;;;;;;;;;26.50;99.90;;;;;;4960331;28;19956;-72
2023/12/06 00:58:50;;;;;;;;;;;26.70;99.90;;;;;;4969016;28;19918;-71
2023/12/06 01:01:21;;;;;;;;;;;26.70;99.90;;;;;;4969210;28;20117;-70
2023/12/06 01:03:48;;;;;;;;;;;26.70;99.90;;;;;;4956938;28;20279;-72
2023/12/06 01:06:15;;;;;;;;;;;26.80;99.90;;;;;;4956574;28;19911;-71
2023/12/06 01:08:41;;;;;;;;;;;26.90;99.90;;;;;;4962538;28;19914;-70
2023/12/06 01:11:08;;;;;;;;;;;26.90;99.90;;;;;;4968728;28;20499;-72
2023/12/06 01:13:34;;;;;;;;;;;26.90;99.90;;;;;;4969328;28;19916;-70
2023/12/06 01:16:01;;;;;;;;;;;26.90;99.90;;;;;;4971201;28;19917;-71
2023/12/06 01:18:28;;;;;;;;;;;26.90;99.90;;;;;;4977119;28;19961;-71
2023/12/06 01:20:55;;;;;;;;;;;27.00;99.90;;;;;;4970451;28;19918;-73
2023/12/06 01:23:21;;;;;;;;;;;27.20;99.90;;;;;;4970432;28;19965;-72
2023/12/06 01:25:48;;;;;;;;;;;27.30;99.90;;;;;;4970385;28;19918;-72
2023/12/06 01:28:15;;;;;;;;;;;27.50;99.90;;;;;;4970703;28;19910;-72
2023/12/06 01:30:41;;;;;;;;;;;27.50;99.90;;;;;;4964315;28;19923;-72
2023/12/06 01:33:08;;;;;;;;;;;27.60;99.80;;;;;;4963435;28;19915;-71
2023/12/06 01:35:34;;;;;;;;;;;27.70;99.90;;;;;;4951172;28;19918;-72
2023/12/06 01:38:01;;;;;;;;;;;27.80;99.50;;;;;;4953425;28;20294;-71
2023/12/06 01:40:28;;;;;;;;;;;27.90;99.60;;;;;;4969170;28;20621;-73
2023/12/06 01:42:54;;;;;;;;;;;28.10;99.30;;;;;;4957899;28;19918;-72
2023/12/06 01:45:21;;;;;;;;;;;28.40;99.00;;;;;;4951572;28;19914;-71
2023/12/06 01:47:48;;;;;;;;;;;28.50;98.60;;;;;;4951238;28;20016;-75
2023/12/06 01:50:15;;;;;;;;;;;28.70;98.40;;;;;;4960327;28;19980;-73
2023/12/06 01:52:42;;;;;;;;;;;28.60;97.60;;;;;;4955389;28;19941;-71
2023/12/06 01:55:09;;;;;;;;;;;28.50;98.40;;;;;;4960937;28;19964;-73
2023/12/06 01:57:36;;;;;;;;;;;28.50;98.90;;;;;;4967973;28;19919;-73
2023/12/06 02:00:04;;;;;;;;;;;28.60;98.60;;;;;;4955415;28;19922;-73
2023/12/06 02:02:30;;;;;;;;;;;28.80;98.90;;;;;;4950713;28;19910;-73
2023/12/06 02:04:57;;;;;;;;;;;28.90;97.50;;;;;;4951405;28;19965;-72
2023/12/06 02:07:24;;;;;;;;;;;28.80;97.90;;;;;;4951238;28;19910;-72
2023/12/06 02:09:51;;;;;;;;;;;28.90;97.70;;;;;;4957066;28;19910;-72
2023/12/06 02:12:18;;;;;;;;;;;28.90;97.30;;;;;;4969741;28;19920;-72
2023/12/06 02:14:45;;;;;;;;;;;28.90;97.40;;;;;;4969336;28;19949;-75
2023/12/06 02:17:12;;;;;;;;;;;29.10;97.10;;;;;;4969373;28;20005;-72
2023/12/06 02:19:39;;;;;;;;;;;29.00;97.50;;;;;;4969002;28;19960;-74
2023/12/06 02:22:06;;;;;;;;;;;29.20;97.00;;;;;;4966909;28;19930;-72
2023/12/06 02:24:34;;;;;;;;;;;29.10;97.00;;;;;;4967355;28;19914;-70
2023/12/06 02:27:01;;;;;;;;;;;29.10;97.60;;;;;;4959319;28;20020;-72
2023/12/06 02:29:28;;;;;;;;;;;29.20;96.90;;;;;;4962814;28;19918;-72
2023/12/06 02:31:54;;;;;;;;;;;29.10;96.70;;;;;;4963781;28;20390;-71
2023/12/06 02:34:24;;;;;;;;;;;29.20;97.70;;;;;;4970887;28;20268;-74
2023/12/06 02:36:52;;;;;;;;;;;29.30;97.10;;;;;;4972139;28;20020;-73
2023/12/06 02:39:19;;;;;;;;;;;29.60;96.40;;;;;;4973799;28;19967;-73
2023/12/06 02:41:46;;;;;;;;;;;29.60;96.60;;;;;;4989334;28;19914;-74
2023/12/06 02:44:13;;;;;;;;;;;29.80;95.90;;;;;;4969214;28;19974;-70
2023/12/06 02:46:40;;;;;;;;;;;30.00;95.10;;;;;;4973504;28;19976;-70
2023/12/06 02:49:07;;;;;;;;;;;30.30;94.40;;;;;;4972726;28;19910;-73
2023/12/06 02:51:33;;;;;;;;;;;30.40;94.80;;;;;;4972115;28;20548;-71
2023/12/06 02:54:00;;;;;;;;;;;30.70;95.00;;;;;;4984170;28;19910;-74
2023/12/06 02:56:27;;;;;;;;;;;30.90;93.80;;;;;;4972066;28;19914;-72
2023/12/06 02:58:54;;;;;;;;;;;31.40;92.80;;;;;;4960944;28;19923;-72
2023/12/06 03:01:21;;;;;;;;;;;31.80;92.20;;;;;;4964694;28;19940;-72
2023/12/06 03:03:47;;;;;;;;;;;32.00;90.70;;;;;;4973093;28;19921;-72
2023/12/06 03:06:14;;;;;;;;;;;32.10;91.30;;;;;;4973031;28;20299;-72
2023/12/06 03:08:41;;;;;;;;;;;32.60;91.70;;;;;;4971478;28;19915;-73
2023/12/06 03:11:08;;;;;;;;;;;33.50;90.00;;;;;;4964521;28;19997;-72
2023/12/06 03:13:35;;;;;;;;;;;33.90;88.80;;;;;;4965958;28;19914;-72
2023/12/06 03:16:02;;;;;;;;;;;34.50;87.60;;;;;;4973064;28;19917;-72
2023/12/06 03:18:28;;;;;;;;;;;35.00;84.60;;;;;;4972691;28;20393;-71
2023/12/06 03:20:55;;;;;;;;;;;35.60;83.10;;;;;;4971642;28;19922;-72
2023/12/06 03:23:22;;;;;;;;;;;36.00;81.20;;;;;;4972008;28;19914;-73
2023/12/06 03:25:51;;;;;;;;;;;36.10;80.80;;;;;;4968971;28;19944;-71
2023/12/06 03:28:18;;;;;;;;;;;36.00;79.50;;;;;;4969117;28;19921;-72
2023/12/06 03:30:44;;;;;;;;;;;35.80;80.20;;;;;;4967187;28;19914;-74
2023/12/06 03:33:11;;;;;;;;;;;36.50;79.70;;;;;;4962627;28;19936;-73
2023/12/06 03:35:37;;;;;;;;;;;37.20;79.20;;;;;;4962980;28;19910;-72
2023/12/06 03:38:04;;;;;;;;;;;37.40;78.00;;;;;;4960563;28;19973;-72
2023/12/06 03:40:31;;;;;;;;;;;37.10;78.50;;;;;;4975015;28;19918;-73
2023/12/06 03:42:57;;;;;;;;;;;37.80;76.90;;;;;;4962766;28;19950;-71
2023/12/06 03:45:24;;;;;;;;;;;38.30;74.10;;;;;;4974656;28;20349;-71
2023/12/06 03:47:50;;;;;;;;;;;38.50;73.20;;;;;;4961309;28;20006;-72
2023/12/06 03:50:17;;;;;;;;;;;38.10;72.80;;;;;;4976937;28;19919;-72
2023/12/06 03:52:44;;;;;;;;;;;38.00;72.80;;;;;;4962829;28;20540;-72
2023/12/06 03:55:11;;;;;;;;;;;37.40;73.20;;;;;;4955723;28;20001;-71
2023/12/06 03:57:38;;;;;;;;;;;36.60;74.60;;;;;;5030473;28;19920;-72
2023/12/06 04:00:04;;;;;;;;;;;36.10;76.30;;;;;;4997500;28;19919;-72
2023/12/06 04:02:31;;;;;;;;;;;36.10;76.50;;;;;;5029779;28;19977;-71
2023/12/06 04:04:58;;;;;;;;;;;35.80;77.40;;;;;;5071350;28;19912;-71
2023/12/06 04:07:24;;;;;;;;;;;36.10;76.20;;;;;;5068409;28;20392;-71
2023/12/06 04:09:51;;;;;;;;;;;36.10;74.70;;;;;;4991668;28;19920;-69
2023/12/06 04:12:17;;;;;;;;;;;36.00;75.80;;;;;;4983620;28;19924;-71
2023/12/06 04:14:44;;;;;;;;;;;35.80;76.60;;;;;;4960061;28;19912;-73
2023/12/06 04:17:11;;;;;;;;;;;35.90;76.60;;;;;;4953051;28;19933;-71
2023/12/06 04:19:38;;;;;;;;;;;36.30;75.40;;;;;;4966730;28;19925;-72
2023/12/06 04:22:05;;;;;;;;;;;36.80;75.00;;;;;;4966584;28;20026;-72
2023/12/06 04:24:32;;;;;;;;;;;36.40;76.10;;;;;;4955553;28;19910;-70
2023/12/06 04:26:59;;;;;;;;;;;36.60;74.90;;;;;;4966727;28;19917;-71
2023/12/06 04:29:26;;;;;;;;;;;36.80;75.60;;;;;;4970068;28;20374;-70
2023/12/06 04:31:52;;;;;;;;;;;37.20;74.20;;;;;;4963766;28;19921;-72
2023/12/06 04:34:19;;;;;;;;;;;37.70;73.60;;;;;;4969184;28;19910;-70
2023/12/06 04:36:46;;;;;;;;;;;37.30;73.10;;;;;;4971049;28;19910;-70
2023/12/06 04:39:12;;;;;;;;;;;37.00;74.80;;;;;;4968003;28;19929;-71
2023/12/06 04:41:39;;;;;;;;;;;36.60;75.90;;;;;;4964772;28;19921;-72
2023/12/06 04:44:06;;;;;;;;;;;36.60;74.90;;;;;;4970135;28;19976;-72
2023/12/06 04:46:33;;;;;;;;;;;36.70;75.70;;;;;;4968926;28;21399;-70
2023/12/06 04:48:59;;;;;;;;;;;36.60;74.90;;;;;;4969337;28;19914;-72
2023/12/06 04:51:26;;;;;;;;;;;36.30;75.00;;;;;;4955548;28;19914;-71
2023/12/06 04:53:52;;;;;;;;;;;36.10;75.50;;;;;;4970550;28;19950;-70
2023/12/06 04:56:19;;;;;;;;;;;36.10;75.70;;;;;;4966530;28;19937;-71
2023/12/06 04:58:46;;;;;;;;;;;35.50;77.20;;;;;;4970068;28;19930;-72
2023/12/06 05:01:12;;;;;;;;;;;34.50;78.00;;;;;;4969885;28;20446;-73
2023/12/06 05:03:39;;;;;;;;;;;33.80;79.60;;;;;;4969020;28;19910;-72
2023/12/06 05:06:06;;;;;;;;;;;34.70;77.50;;;;;;4964524;28;20367;-72
2023/12/06 05:08:32;;;;;;;;;;;35.80;76.20;;;;;;5010342;28;19918;-72
2023/12/06 05:10:59;;;;;;;;;;;36.10;74.10;;;;;;4970243;28;19917;-71
2023/12/06 05:13:29;;;;;;;;;;;35.90;74.90;;;;;;4962103;28;19915;-72
2023/12/06 05:15:55;;;;;;;;;;;35.90;74.90;;;;;;4958630;28;20386;-74
2023/12/06 05:18:22;;;;;;;;;;;36.50;74.50;;;;;;4977951;28;20000;-72
2023/12/06 05:20:48;;;;;;;;;;;37.30;73.20;;;;;;4967844;28;20065;-72
2023/12/06 05:23:15;;;;;;;;;;;37.10;72.70;;;;;;4958643;28;19914;-72
2023/12/06 05:25:41;;;;;;;;;;;36.60;73.80;;;;;;4993131;28;19934;-72
2023/12/06 05:28:08;;;;;;;;;;;36.90;73.40;;;;;;4969591;28;19918;-72
2023/12/06 05:30:35;;;;;;;;;;;35.70;74.20;;;;;;4969247;28;20006;-72
2023/12/06 05:33:01;;;;;;;;;;;34.40;75.90;;;;;;4963296;28;19921;-72
2023/12/06 05:35:28;;;;;;;;;;;34.00;76.90;;;;;;4968820;28;19949;-72
2023/12/06 05:37:55;;;;;;;;;;;34.10;77.40;;;;;;4969667;28;19988;-73
2023/12/06 05:40:21;;;;;;;;;;;33.50;79.20;;;;;;4968505;28;19914;-70
2023/12/06 05:42:48;;;;;;;;;;;34.10;78.80;;;;;;4960606;28;19965;-72
2023/12/06 05:45:15;;;;;;;;;;;34.10;78.50;;;;;;4962928;28;19979;-70
2023/12/06 05:47:42;;;;;;;;;;;34.10;78.40;;;;;;4968840;28;19910;-73
2023/12/06 05:50:10;;;;;;;;;;;34.50;79.40;;;;;;4968392;28;20006;-72
2023/12/06 05:52:37;;;;;;;;;;;34.10;79.90;;;;;;4968896;28;19910;-72
2023/12/06 05:55:05;;;;;;;;;;;34.10;78.80;;;;;;4968518;28;19920;-72
2023/12/06 05:57:32;;;;;;;;;;;32.80;80.50;;;;;;4968501;28;19915;-73
2023/12/06 05:59:59;;;;;;;;;;;32.20;82.90;;;;;;4964107;28;20012;-73
2023/12/06 06:02:25;;;;;;;;;;;32.10;82.30;;;;;;4973548;28;20352;-72
2023/12/06 06:04:52;;;;;;;;;;;31.80;82.80;;;;;;4966885;28;20279;-70
2023/12/06 06:07:19;;;;;;;;;;;31.50;82.60;;;;;;4972721;28;19928;-72
2023/12/06 06:09:45;;;;;;;;;;;30.80;84.60;;;;;;4974972;28;19989;-69
2023/12/06 06:12:12;;;;;;;;;;;30.70;84.90;;;;;;4975642;28;19993;-70
2023/12/06 06:14:39;;;;;;;;;;;30.50;85.40;;;;;;4975133;28;19942;-71
2023/12/06 06:17:05;;;;;;;;;;;30.20;86.50;;;;;;4974740;28;19914;-72
2023/12/06 06:19:32;;;;;;;;;;;29.90;88.10;;;;;;4975373;28;19926;-73
2023/12/06 06:21:58;;;;;;;;;;;30.20;88.30;;;;;;4971194;28;19948;-71
2023/12/06 06:24:25;;;;;;;;;;;30.20;87.50;;;;;;4971533;28;19914;-71
2023/12/06 06:26:52;;;;;;;;;;;30.10;87.10;;;;;;4974809;28;19911;-70
2023/12/06 06:29:19;;;;;;;;;;;30.10;87.80;;;;;;4974201;28;19928;-72
2023/12/06 06:31:45;;;;;;;;;;;30.20;88.60;;;;;;4976210;28;19921;-72
2023/12/06 06:34:12;;;;;;;;;;;30.20;87.50;;;;;;4976011;28;19918;-72
2023/12/06 06:36:39;;;;;;;;;;;30.00;88.20;;;;;;4975118;28;20311;-71
2023/12/06 06:39:05;;;;;;;;;;;30.00;87.50;;;;;;4974885;28;19918;-71
2023/12/06 06:41:32;;;;;;;;;;;29.70;87.70;;;;;;4976205;28;19910;-72
2023/12/06 06:43:58;;;;;;;;;;;29.60;89.10;;;;;;4972827;28;19914;-73
2023/12/06 06:46:25;;;;;;;;;;;29.30;90.30;;;;;;4973780;28;20009;-71
2023/12/06 06:48:52;;;;;;;;;;;29.20;90.10;;;;;;4973514;28;19960;-73
2023/12/06 06:51:18;;;;;;;;;;;28.90;90.10;;;;;;4973873;28;20640;-72
2023/12/06 06:53:45;;;;;;;;;;;28.80;90.40;;;;;;4974238;28;19941;-71
2023/12/06 06:56:12;;;;;;;;;;;28.80;90.10;;;;;;4971593;28;19990;-72
2023/12/06 06:58:38;;;;;;;;;;;28.70;90.30;;;;;;4975086;28;19918;-71
2023/12/06 07:01:05;;;;;;;;;;;28.70;90.70;;;;;;4968355;28;19958;-71
2023/12/06 07:03:32;;;;;;;;;;;28.30;91.40;;;;;;4962362;28;19911;-74
2023/12/06 07:06:01;;;;;;;;;;;28.30;91.50;;;;;;4977774;28;19915;-71
2023/12/06 07:08:29;;;;;;;;;;;28.20;91.40;;;;;;4975412;28;19979;-70
2023/12/06 07:10:56;;;;;;;;;;;28.00;91.90;;;;;;4961902;28;19915;-71
2023/12/06 07:13:23;;;;;;;;;;;27.70;92.50;;;;;;4960471;28;19983;-73
2023/12/06 07:15:49;;;;;;;;;;;27.50;93.20;;;;;;4972156;28;19949;-73
2023/12/06 07:18:18;;;;;;;;;;;27.30;93.00;;;;;;4966557;28;20038;-72
2023/12/06 07:20:45;;;;;;;;;;;27.00;93.70;;;;;;4964421;28;19967;-72
2023/12/06 07:23:11;;;;;;;;;;;26.80;93.60;;;;;;4952583;28;19928;-73
2023/12/06 07:25:38;;;;;;;;;;;26.80;94.00;;;;;;4959581;28;19946;-71
2023/12/06 07:28:05;;;;;;;;;;;26.80;94.10;;;;;;4953070;28;20335;-71
2023/12/06 07:30:32;;;;;;;;;;;26.70;94.30;;;;;;4971102;28;19920;-71
2023/12/06 07:32:59;;;;;;;;;;;26.50;94.40;;;;;;4967106;28;20393;-72
2023/12/06 07:35:26;;;;;;;;;;;26.40;95.00;;;;;;4969513;28;20009;-72
2023/12/06 07:37:52;;;;;;;;;;;26.40;95.00;;;;;;4954339;28;19958;-73
2023/12/06 07:40:20;;;;;;;;;;;26.30;95.40;;;;;;4969169;28;19922;-72
2023/12/06 07:42:46;;;;;;;;;;;26.50;95.00;;;;;;4970662;28;19911;-74
2023/12/06 07:45:15;;;;;;;;;;;26.40;95.00;;;;;;4971837;28;19961;-71
2023/12/06 07:47:42;;;;;;;;;;;26.40;95.10;;;;;;4964358;28;19919;-72
2023/12/06 07:50:09;;;;;;;;;;;26.10;95.60;;;;;;4966533;28;19914;-73
2023/12/06 07:52:36;;;;;;;;;;;26.00;95.60;;;;;;4970106;28;19914;-71
2023/12/06 07:55:06;;;;;;;;;;;25.80;96.10;;;;;;4971505;28;19918;-71
2023/12/06 07:57:33;;;;;;;;;;;25.60;96.50;;;;;;4955805;28;20344;-70
2023/12/06 08:00:00;;;;;;;;;;;25.80;96.70;;;;;;4970207;28;19922;-71
2023/12/06 08:02:27;;;;;;;;;;;25.70;96.30;;;;;;4968800;28;20339;-70
2023/12/06 08:04:53;;;;;;;;;;;25.50;96.80;;;;;;4973195;28;19914;-71
2023/12/06 08:07:22;;;;;;;;;;;25.40;96.80;;;;;;4974669;28;20195;-71
2023/12/06 08:09:49;;;;;;;;;;;25.30;97.30;;;;;;4962156;28;19969;-72
2023/12/06 08:12:16;;;;;;;;;;;25.50;97.50;;;;;;4961286;28;19910;-74
2023/12/06 08:14:43;;;;;;;;;;;25.30;97.00;;;;;;4974071;28;20252;-72
2023/12/06 08:17:10;;;;;;;;;;;25.30;97.70;;;;;;4960953;28;19915;-73
2023/12/06 08:19:45;;;;;;;;;;;25.10;97.70;;;;;;4973943;28;19925;-76
2023/12/06 08:22:12;;;;;;;;;;;24.90;98.20;;;;;;4961395;28;20380;-69
2023/12/06 08:24:39;;;;;;;;;;;24.80;98.30;;;;;;4973121;28;19918;-75
2023/12/06 08:27:06;;;;;;;;;;;24.60;98.40;;;;;;4968840;28;20364;-70
2023/12/06 08:29:33;;;;;;;;;;;24.60;98.10;;;;;;4965535;28;19925;-73
2023/12/06 08:32:05;;;;;;;;;;;24.50;97.90;;;;;;4962968;28;19984;-75
2023/12/06 08:34:35;;;;;;;;;;;24.60;98.10;;;;;;4966989;28;20391;-72
2023/12/06 08:37:02;;;;;;;;;;;24.60;98.30;;;;;;4963072;28;20014;-71
2023/12/06 08:39:36;;;;;;;;;;;24.60;98.00;;;;;;4963178;28;19929;-73
2023/12/06 08:42:08;;;;;;;;;;;24.50;98.10;;;;;;4960159;28;19953;-72
2023/12/06 08:44:35;;;;;;;;;;;24.30;98.70;;;;;;4960257;28;19918;-72
2023/12/06 08:47:02;;;;;;;;;;;24.30;99.30;;;;;;4967263;28;20362;-72
2023/12/06 08:49:29;;;;;;;;;;;24.30;99.20;;;;;;4969112;28;19914;-72
2023/12/06 08:51:59;;;;;;;;;;;24.30;99.40;;;;;;4971050;28;20012;-74
2023/12/06 08:54:25;;;;;;;;;;;24.20;99.30;;;;;;4969704;28;20294;-73
2023/12/06 08:56:52;;;;;;;;;;;24.20;99.20;;;;;;4961911;28;19922;-74
2023/12/06 08:59:19;;;;;;;;;;;24.10;99.00;;;;;;4961662;28;20390;-72
2023/12/06 09:01:45;;;;;;;;;;;23.90;99.00;;;;;;4969516;28;20006;-75
2023/12/06 09:04:12;;;;;;;;;;;23.80;99.10;;;;;;4972025;28;20274;-73
2023/12/06 09:06:38;;;;;;;;;;;23.90;99.20;;;;;;4960259;28;19915;-73
2023/12/06 09:09:05;;;;;;;;;;;23.80;99.20;;;;;;4963789;28;19914;-73
2023/12/06 09:11:32;;;;;;;;;;;23.80;99.10;;;;;;4971704;28;20370;-76
2023/12/06 09:13:58;;;;;;;;;;;23.70;99.60;;;;;;4962612;28;20014;-75
2023/12/06 09:16:25;;;;;;;;;;;23.60;99.70;;;;;;4972964;28;20335;-76
2023/12/06 09:18:51;;;;;;;;;;;23.50;99.90;;;;;;4969274;28;20005;-75
2023/12/06 09:21:18;;;;;;;;;;;23.60;99.90;;;;;;5019778;28;19920;-74
2023/12/06 09:23:47;;;;;;;;;;;23.50;99.90;;;;;;5039431;28;19935;-74
2023/12/06 09:26:21;;;;;;;;;;;23.50;99.90;;;;;;4990209;28;19967;-73
2023/12/06 09:28:48;;;;;;;;;;;23.50;99.90;;;;;;4971197;28;19918;-74
2023/12/06 09:31:16;;;;;;;;;;;23.60;99.90;;;;;;4967557;28;20424;-75
2023/12/06 09:33:43;;;;;;;;;;;23.50;99.90;;;;;;4970949;28;19914;-73
2023/12/06 09:36:09;;;;;;;;;;;23.50;99.90;;;;;;4970420;28;19914;-72
2023/12/06 09:38:36;;;;;;;;;;;23.60;99.90;;;;;;4969301;28;19922;-73
2023/12/06 09:41:05;;;;;;;;;;;23.60;99.90;;;;;;4965336;28;19922;-72
2023/12/06 09:43:31;;;;;;;;;;;23.70;99.90;;;;;;4967748;28;19921;-73
2023/12/06 09:45:58;;;;;;;;;;;23.60;99.90;;;;;;4969235;28;20268;-72
2023/12/06 09:48:27;;;;;;;;;;;23.50;99.90;;;;;;4970067;28;19910;-74
2023/12/06 09:50:54;;;;;;;;;;;23.50;99.90;;;;;;4968939;28;19914;-73
2023/12/06 09:53:22;;;;;;;;;;;23.40;99.90;;;;;;4971083;28;19914;-73
2023/12/06 09:55:48;;;;;;;;;;;23.30;99.90;;;;;;5057982;28;19981;-73
2023/12/06 09:58:17;;;;;;;;;;;23.20;99.90;;;;;;4970573;28;19921;-72
2023/12/06 10:00:44;;;;;;;;;;;23.10;99.90;;;;;;4969594;28;19994;-72
2023/12/06 10:03:13;;;;;;;;;;;23.10;99.90;;;;;;4970284;28;20044;-73
2023/12/06 10:05:40;;;;;;;;;;;23.00;99.90;;;;;;4970496;28;19910;-74
2023/12/06 10:08:07;;;;;;;;;;;23.00;99.90;;;;;;4970514;28;19910;-73
2023/12/06 10:10:35;;;;;;;;;;;23.10;99.90;;;;;;4970381;28;19921;-72
2023/12/06 10:13:02;;;;;;;;;;;23.10;99.90;;;;;;4970392;28;19915;-71
2023/12/06 10:15:36;;;;;;;;;;;23.00;99.90;;;;;;4970966;28;19949;-71
2023/12/06 10:18:03;;;;;;;;;;;22.90;99.90;;;;;;4970890;28;19925;-73
2023/12/06 10:20:30;;;;;;;;;;;23.00;99.90;;;;;;4970074;28;19929;-73
2023/12/06 10:22:57;;;;;;;;;;;23.00;99.90;;;;;;4970347;28;20033;-76
2023/12/06 10:25:23;;;;;;;;;;;23.00;99.90;;;;;;4971264;28;19996;-71
2023/12/06 10:27:50;;;;;;;;;;;23.00;99.90;;;;;;4969494;28;20043;-74
2023/12/06 10:30:22;;;;;;;;;;;23.00;99.90;;;;;;4971062;28;20360;-72
2023/12/06 10:32:50;;;;;;;;;;;23.00;99.90;;;;;;4970771;28;19914;-72
2023/12/06 10:35:17;;;;;;;;;;;23.00;99.90;;;;;;4972481;28;19993;-73
2023/12/06 10:37:46;;;;;;;;;;;22.90;99.90;;;;;;4960743;28;19918;-73
2023/12/06 10:40:13;;;;;;;;;;;22.80;99.90;;;;;;4970405;28;19975;-71
2023/12/06 10:42:45;;;;;;;;;;;22.80;99.90;;;;;;4970758;28;20008;-72
2023/12/06 10:45:13;;;;;;;;;;;22.70;99.90;;;;;;4972315;28;19910;-71
2023/12/06 10:47:41;;;;;;;;;;;22.80;99.90;;;;;;4973399;28;19910;-73
2023/12/06 10:50:09;;;;;;;;;;;22.90;99.90;;;;;;4973951;28;19949;-73
2023/12/06 10:52:36;;;;;;;;;;;22.80;99.90;;;;;;4973539;28;19910;-72
2023/12/06 10:55:03;;;;;;;;;;;22.80;99.90;;;;;;4973816;28;19979;-73
2023/12/06 10:57:31;;;;;;;;;;;22.80;99.90;;;;;;4973328;28;19914;-73
2023/12/06 10:59:58;;;;;;;;;;;22.90;99.90;;;;;;4973398;28;19960;-74
2023/12/06 11:02:24;;;;;;;;;;;22.80;99.90;;;;;;4973923;28;19910;-73
2023/12/06 11:04:57;;;;;;;;;;;22.80;99.90;;;;;;4973525;28;20001;-75
2023/12/06 11:07:24;;;;;;;;;;;22.70;99.90;;;;;;4973498;28;19914;-73
2023/12/06 11:10:09;;;;;;;;;;;22.80;99.90;;;;;;4973103;28;19974;-71
2023/12/06 11:12:54;;;;;;;;;;;22.70;99.90;;;;;;4973171;28;19968;-71
2023/12/06 11:15:38;;;;;;;;;;;22.70;99.90;;;;;;4973431;28;19914;-72
2023/12/06 11:18:21;;;;;;;;;;;22.70;99.90;;;;;;4973255;28;19914;-72
2023/12/06 11:20:48;;;;;;;;;;;22.70;99.90;;;;;;4973375;28;19922;-75
2023/12/06 11:23:16;;;;;;;;;;;22.60;99.90;;;;;;4973427;28;19969;-71
2023/12/06 11:25:43;;;;;;;;;;;22.60;99.90;;;;;;4973257;28;19910;-73
2023/12/06 11:28:14;;;;;;;;;;;22.70;99.90;;;;;;4973057;28;19949;-73
2023/12/06 11:30:47;;;;;;;;;;;22.70;99.90;;;;;;4972883;28;19914;-72
2023/12/06 11:33:14;;;;;;;;;;;22.60;99.90;;;;;;4971531;28;19921;-75
2023/12/06 11:35:44;;;;;;;;;;;22.70;99.90;;;;;;4969614;28;19926;-73
2023/12/06 11:38:11;;;;;;;;;;;22.60;99.90;;;;;;4963831;28;19918;-71
2023/12/06 11:40:48;;;;;;;;;;;22.70;99.90;;;;;;4958119;28;20391;-73
2023/12/06 11:43:15;;;;;;;;;;;22.70;99.90;;;;;;4962923;28;20287;-74
2023/12/06 11:45:42;;;;;;;;;;;22.70;99.90;;;;;;4961562;28;19911;-72
2023/12/06 11:48:13;;;;;;;;;;;22.70;99.90;;;;;;4958338;28;20394;-72
2023/12/06 11:50:42;;;;;;;;;;;22.70;99.90;;;;;;4954687;28;19921;-73
2023/12/06 11:53:10;;;;;;;;;;;22.70;99.90;;;;;;4953513;28;19915;-73
2023/12/06 11:55:37;;;;;;;;;;;22.60;99.90;;;;;;4954190;28;19911;-70
2023/12/06 11:58:10;;;;;;;;;;;22.70;99.90;;;;;;4970573;28;19922;-74
2023/12/06 12:00:40;;;;;;;;;;;22.80;99.90;;;;;;4972626;28;19919;-72
2023/12/06 12:03:06;;;;;;;;;;;22.70;99.90;;;;;;4971567;28;19957;-72
2023/12/06 12:05:33;;;;;;;;;;;22.70;99.90;;;;;;4972675;28;19910;-73
2023/12/06 12:08:03;;;;;;;;;;;22.70;99.90;;;;;;4972567;28;19910;-73
2023/12/06 12:10:30;;;;;;;;;;;22.70;99.90;;;;;;4973013;28;20013;-73
2023/12/06 12:12:57;;;;;;;;;;;22.70;99.90;;;;;;4972844;28;19948;-75
2023/12/06 12:15:27;;;;;;;;;;;22.60;99.90;;;;;;4972869;28;19968;-73
2023/12/06 12:17:54;;;;;;;;;;;22.50;99.90;;;;;;4963907;28;20329;-74
2023/12/06 12:20:20;;;;;;;;;;;22.40;99.90;;;;;;4953067;29;19922;-74
2023/12/06 12:22:48;;;;;;;;;;;22.40;99.90;;;;;;4953265;28;19918;-73
2023/12/06 12:25:15;;;;;;;;;;;22.50;99.90;;;;;;4953195;28;20221;-72
2023/12/06 12:27:48;;;;;;;;;;;22.40;99.90;;;;;;4953011;28;20389;-73
2023/12/06 12:30:15;;;;;;;;;;;22.40;99.90;;;;;;4953997;28;19953;-74
2023/12/06 12:32:44;;;;;;;;;;;22.30;99.90;;;;;;4953240;28;20333;-72
2023/12/06 12:35:12;;;;;;;;;;;22.30;99.90;;;;;;4953079;28;19911;-73
2023/12/06 12:37:39;;;;;;;;;;;22.30;99.90;;;;;;4953091;28;19918;-72
2023/12/06 12:40:08;;;;;;;;;;;22.20;99.90;;;;;;4953022;28;19911;-72
2023/12/06 12:42:39;;;;;;;;;;;22.30;99.90;;;;;;4952940;28;19911;-73
2023/12/06 12:45:10;;;;;;;;;;;22.40;99.90;;;;;;4953086;28;19965;-73
2023/12/06 12:47:40;;;;;;;;;;;22.30;99.90;;;;;;4952991;28;19914;-72
2023/12/06 12:50:07;;;;;;;;;;;22.40;99.90;;;;;;4952561;28;19910;-71
2023/12/06 12:52:35;;;;;;;;;;;22.30;99.90;;;;;;4953016;28;19915;-73
2023/12/06 12:55:03;;;;;;;;;;;22.30;99.90;;;;;;4952856;28;19915;-72
2023/12/06 12:57:34;;;;;;;;;;;22.30;99.90;;;;;;4952569;28;20022;-73
2023/12/06 13:00:01;;;;;;;;;;;22.30;99.90;;;;;;4952247;28;19964;-73
2023/12/06 13:02:27;;;;;;;;;;;22.30;99.90;;;;;;4952671;28;19910;-75
2023/12/06 13:04:55;;;;;;;;;;;22.10;99.90;;;;;;4952532;28;19917;-73
2023/12/06 13:07:21;;;;;;;;;;;22.10;99.90;;;;;;4953687;28;20390;-74
2023/12/06 13:09:49;;;;;;;;;;;22.10;99.90;;;;;;4951740;28;19929;-74
2023/12/06 13:12:15;;;;;;;;;;;22.00;99.90;;;;;;4952616;28;19948;-71
2023/12/06 13:14:42;;;;;;;;;;;22.10;99.90;;;;;;4952688;28;19917;-74
2023/12/06 13:17:09;;;;;;;;;;;22.10;99.90;;;;;;4952548;28;19911;-74
2023/12/06 13:19:36;;;;;;;;;;;22.20;99.90;;;;;;4952322;28;19926;-73
2023/12/06 13:22:02;;;;;;;;;;;22.20;99.90;;;;;;4952289;28;19923;-73
2023/12/06 13:24:30;;;;;;;;;;;22.30;99.90;;;;;;4952303;28;20006;-71
2023/12/06 13:26:57;;;;;;;;;;;22.20;99.90;;;;;;4967735;28;19960;-72
2023/12/06 13:29:23;;;;;;;;;;;22.20;99.90;;;;;;4971347;28;19918;-74
2023/12/06 13:31:50;;;;;;;;;;;22.30;99.90;;;;;;4971505;28;19910;-72
2023/12/06 13:34:16;;;;;;;;;;;22.30;99.90;;;;;;4971601;28;20355;-71
2023/12/06 13:36:43;;;;;;;;;;;22.30;99.90;;;;;;4971378;28;19914;-72
2023/12/06 13:39:11;;;;;;;;;;;22.20;99.90;;;;;;4970990;28;20264;-74
2023/12/06 13:41:38;;;;;;;;;;;22.10;99.90;;;;;;4971462;28;19921;-72
2023/12/06 13:44:04;;;;;;;;;;;22.10;99.90;;;;;;4971326;28;19918;-72
2023/12/06 13:46:32;;;;;;;;;;;22.10;99.90;;;;;;4971394;28;19956;-72
2023/12/06 13:48:58;;;;;;;;;;;22.10;99.90;;;;;;4970617;28;20004;-73
2023/12/06 13:51:25;;;;;;;;;;;22.10;99.90;;;;;;4971238;28;20001;-72
2023/12/06 13:53:52;;;;;;;;;;;22.00;99.90;;;;;;4970836;28;19914;-73
2023/12/06 13:56:21;;;;;;;;;;;22.00;99.90;;;;;;4970649;28;19918;-74
2023/12/06 13:58:48;;;;;;;;;;;22.00;99.90;;;;;;4970605;28;20395;-73
2023/12/06 14:01:14;;;;;;;;;;;22.00;99.90;;;;;;4971309;28;19910;-71
2023/12/06 14:03:42;;;;;;;;;;;22.10;99.90;;;;;;4971041;28;19914;-73
2023/12/06 14:06:09;;;;;;;;;;;22.10;99.90;;;;;;4971036;28;19918;-72
2023/12/06 14:08:36;;;;;;;;;;;22.00;99.90;;;;;;4970443;28;19918;-72
2023/12/06 14:11:03;;;;;;;;;;;22.00;99.90;;;;;;4970641;28;20291;-74
2023/12/06 14:13:30;;;;;;;;;;;22.00;99.90;;;;;;4970920;28;19997;-73
2023/12/06 14:15:57;;;;;;;;;;;22.00;99.90;;;;;;4971704;28;20005;-73